sensor_id;sensor_type;location;lat;lon;timestamp;P1;durP1;ratioP1;P2;durP2;ratioP2
21060;SDS011;10689;50.836;3.266;2023-03-23T00:00:08;1.30;;;1.05;;
21060;SDS011;10689;50.836;3.266;2023-03-23T00:02:34;1.38;;;1.27;;
21060;SDS011;10689;50.836;3.266;2023-03-23T00:05:01;1.52;;;1.30;;
21060;SDS011;10689;50.836;3.266;2023-03-23T00:07:28;1.25;;;1.13;;
21060;SDS011;10689;50.836;3.266;2023-03-23T00:09:55;2.15;;;1.73;;
21060;SDS011;10689;50.836;3.266;2023-03-23T00:12:26;1.35;;;1.17;;
21060;SDS011;10689;50.836;3.266;2023-03-23T00:15:08;1.38;;;1.27;;
21060;SDS011;10689;50.836;3.266;2023-03-23T00:17:38;1.58;;;1.40;;
21060;SDS011;10689;50.836;3.266;2023-03-23T00:20:05;1.10;;;1.00;;
21060;SDS011;10689;50.836;3.266;2023-03-23T00:22:32;3.60;;;1.38;;
21060;SDS011;10689;50.836;3.266;2023-03-23T00:25:02;1.98;;;1.05;;
21060;SDS011;10689;50.836;3.266;2023-03-23T00:27:29;1.02;;;1.02;;
21060;SDS011;10689;50.836;3.266;2023-03-23T00:29:54;1.33;;;1.23;;
21060;SDS011;10689;50.836;3.266;2023-03-23T00:32:22;1.20;;;1.10;;
21060;SDS011;10689;50.836;3.266;2023-03-23T00:34:55;4.20;;;1.10;;
21060;SDS011;10689;50.836;3.266;2023-03-23T00:37:23;1.65;;;1.10;;
21060;SDS011;10689;50.836;3.266;2023-03-23T00:39:49;1.17;;;1.13;;
21060;SDS011;10689;50.836;3.266;2023-03-23T00:42:17;1.20;;;1.10;;
21060;SDS011;10689;50.836;3.266;2023-03-23T00:44:43;1.38;;;1.27;;
21060;SDS011;10689;50.836;3.266;2023-03-23T00:47:09;0.70;;;0.70;;
21060;SDS011;10689;50.836;3.266;2023-03-23T00:49:37;0.82;;;0.82;;
21060;SDS011;10689;50.836;3.266;2023-03-23T00:52:05;1.52;;;1.30;;
21060;SDS011;10689;50.836;3.266;2023-03-23T00:54:31;1.40;;;0.90;;
21060;SDS011;10689;50.836;3.266;2023-03-23T00:56:58;1.15;;;1.05;;
21060;SDS011;10689;50.836;3.266;2023-03-23T00:59:24;2.42;;;1.08;;
21060;SDS011;10689;50.836;3.266;2023-03-23T01:01:50;0.73;;;0.73;;
21060;SDS011;10689;50.836;3.266;2023-03-23T01:04:16;1.67;;;1.20;;
21060;SDS011;10689;50.836;3.266;2023-03-23T01:06:43;0.75;;;0.70;;
21060;SDS011;10689;50.836;3.266;2023-03-23T01:09:13;1.52;;;1.10;;
21060;SDS011;10689;50.836;3.266;2023-03-23T01:11:42;0.90;;;0.90;;
21060;SDS011;10689;50.836;3.266;2023-03-23T01:14:09;1.50;;;0.98;;
21060;SDS011;10689;50.836;3.266;2023-03-23T01:16:35;0.93;;;0.90;;
21060;SDS011;10689;50.836;3.266;2023-03-23T01:19:01;1.42;;;1.23;;
21060;SDS011;10689;50.836;3.266;2023-03-23T01:21:28;1.27;;;0.98;;
21060;SDS011;10689;50.836;3.266;2023-03-23T01:23:54;1.83;;;1.13;;
21060;SDS011;10689;50.836;3.266;2023-03-23T01:26:21;1.85;;;1.00;;
21060;SDS011;10689;50.836;3.266;2023-03-23T01:28:49;2.35;;;1.20;;
21060;SDS011;10689;50.836;3.266;2023-03-23T01:31:17;0.93;;;0.90;;
21060;SDS011;10689;50.836;3.266;2023-03-23T01:33:47;0.65;;;0.65;;
21060;SDS011;10689;50.836;3.266;2023-03-23T01:36:23;1.40;;;1.20;;
21060;SDS011;10689;50.836;3.266;2023-03-23T01:38:53;2.70;;;1.00;;
21060;SDS011;10689;50.836;3.266;2023-03-23T01:41:19;1.08;;;0.98;;
21060;SDS011;10689;50.836;3.266;2023-03-23T01:43:56;0.82;;;0.82;;
21060;SDS011;10689;50.836;3.266;2023-03-23T01:46:22;0.75;;;0.70;;
21060;SDS011;10689;50.836;3.266;2023-03-23T01:48:50;2.67;;;1.33;;
21060;SDS011;10689;50.836;3.266;2023-03-23T01:51:16;0.70;;;0.70;;
21060;SDS011;10689;50.836;3.266;2023-03-23T01:53:48;1.20;;;0.95;;
21060;SDS011;10689;50.836;3.266;2023-03-23T01:56:31;1.67;;;0.70;;
21060;SDS011;10689;50.836;3.266;2023-03-23T01:59:06;1.35;;;0.88;;
21060;SDS011;10689;50.836;3.266;2023-03-23T02:01:33;1.30;;;1.20;;
21060;SDS011;10689;50.836;3.266;2023-03-23T02:04:03;0.80;;;0.70;;
21060;SDS011;10689;50.836;3.266;2023-03-23T02:06:30;1.73;;;1.25;;
21060;SDS011;10689;50.836;3.266;2023-03-23T02:08:56;3.25;;;0.82;;
21060;SDS011;10689;50.836;3.266;2023-03-23T02:11:22;0.82;;;0.82;;
21060;SDS011;10689;50.836;3.266;2023-03-23T02:13:48;1.10;;;0.88;;
21060;SDS011;10689;50.836;3.266;2023-03-23T02:22:12;2.47;;;1.13;;
21060;SDS011;10689;50.836;3.266;2023-03-23T02:25:04;1.92;;;0.93;;
21060;SDS011;10689;50.836;3.266;2023-03-23T02:33:58;4.32;;;1.20;;
21060;SDS011;10689;50.836;3.266;2023-03-23T02:38:56;3.42;;;1.00;;
21060;SDS011;10689;50.836;3.266;2023-03-23T02:41:22;2.70;;;1.23;;
21060;SDS011;10689;50.836;3.266;2023-03-23T02:43:54;2.53;;;0.95;;
21060;SDS011;10689;50.836;3.266;2023-03-23T02:46:21;4.65;;;1.00;;
21060;SDS011;10689;50.836;3.266;2023-03-23T02:48:49;3.67;;;1.00;;
21060;SDS011;10689;50.836;3.266;2023-03-23T02:51:18;2.15;;;0.80;;
21060;SDS011;10689;50.836;3.266;2023-03-23T02:53:45;5.28;;;1.10;;
21060;SDS011;10689;50.836;3.266;2023-03-23T02:56:14;1.10;;;0.75;;
21060;SDS011;10689;50.836;3.266;2023-03-23T02:58:41;2.97;;;1.00;;
21060;SDS011;10689;50.836;3.266;2023-03-23T03:01:14;2.10;;;1.05;;
21060;SDS011;10689;50.836;3.266;2023-03-23T03:04:10;0.98;;;0.90;;
21060;SDS011;10689;50.836;3.266;2023-03-23T03:06:48;0.80;;;0.80;;
21060;SDS011;10689;50.836;3.266;2023-03-23T03:12:25;0.98;;;0.73;;
21060;SDS011;10689;50.836;3.266;2023-03-23T03:18:11;0.68;;;0.65;;
21060;SDS011;10689;50.836;3.266;2023-03-23T03:21:03;2.80;;;1.20;;
21060;SDS011;10689;50.836;3.266;2023-03-23T03:23:32;1.35;;;0.98;;
21060;SDS011;10689;50.836;3.266;2023-03-23T03:26:01;0.68;;;0.68;;
21060;SDS011;10689;50.836;3.266;2023-03-23T03:28:29;2.17;;;1.00;;
21060;SDS011;10689;50.836;3.266;2023-03-23T03:30:57;2.35;;;1.08;;
21060;SDS011;10689;50.836;3.266;2023-03-23T03:33:27;2.47;;;1.20;;
21060;SDS011;10689;50.836;3.266;2023-03-23T03:35:56;2.35;;;1.00;;
21060;SDS011;10689;50.836;3.266;2023-03-23T03:38:24;1.40;;;0.63;;
21060;SDS011;10689;50.836;3.266;2023-03-23T03:40:51;3.22;;;1.20;;
21060;SDS011;10689;50.836;3.266;2023-03-23T03:43:18;2.30;;;0.90;;
21060;SDS011;10689;50.836;3.266;2023-03-23T03:45:44;3.13;;;1.00;;
21060;SDS011;10689;50.836;3.266;2023-03-23T03:48:10;1.95;;;0.70;;
21060;SDS011;10689;50.836;3.266;2023-03-23T03:50:36;2.05;;;1.33;;
21060;SDS011;10689;50.836;3.266;2023-03-23T03:53:02;1.65;;;0.90;;
21060;SDS011;10689;50.836;3.266;2023-03-23T03:55:30;5.45;;;0.80;;
21060;SDS011;10689;50.836;3.266;2023-03-23T03:58:00;2.05;;;0.98;;
21060;SDS011;10689;50.836;3.266;2023-03-23T04:00:29;2.55;;;0.60;;
21060;SDS011;10689;50.836;3.266;2023-03-23T04:02:55;5.65;;;1.08;;
21060;SDS011;10689;50.836;3.266;2023-03-23T04:05:22;2.78;;;1.00;;
21060;SDS011;10689;50.836;3.266;2023-03-23T04:07:48;2.17;;;1.20;;
21060;SDS011;10689;50.836;3.266;2023-03-23T04:10:16;4.88;;;1.08;;
21060;SDS011;10689;50.836;3.266;2023-03-23T04:12:46;6.07;;;1.35;;
21060;SDS011;10689;50.836;3.266;2023-03-23T04:15:13;2.50;;;0.90;;
21060;SDS011;10689;50.836;3.266;2023-03-23T04:17:38;1.52;;;1.10;;
21060;SDS011;10689;50.836;3.266;2023-03-23T04:20:05;3.70;;;1.08;;
21060;SDS011;10689;50.836;3.266;2023-03-23T04:22:37;1.55;;;0.98;;
21060;SDS011;10689;50.836;3.266;2023-03-23T04:25:03;2.00;;;1.10;;
21060;SDS011;10689;50.836;3.266;2023-03-23T04:27:31;3.25;;;1.38;;
21060;SDS011;10689;50.836;3.266;2023-03-23T04:29:58;4.78;;;1.20;;
21060;SDS011;10689;50.836;3.266;2023-03-23T04:32:24;2.63;;;1.52;;
21060;SDS011;10689;50.836;3.266;2023-03-23T04:34:57;1.75;;;0.80;;
21060;SDS011;10689;50.836;3.266;2023-03-23T04:37:24;3.65;;;1.23;;
21060;SDS011;10689;50.836;3.266;2023-03-23T04:39:54;5.22;;;1.23;;
21060;SDS011;10689;50.836;3.266;2023-03-23T04:42:28;6.18;;;1.73;;
21060;SDS011;10689;50.836;3.266;2023-03-23T04:44:58;1.60;;;0.85;;
21060;SDS011;10689;50.836;3.266;2023-03-23T04:47:25;3.35;;;0.93;;
21060;SDS011;10689;50.836;3.266;2023-03-23T04:49:54;2.05;;;1.15;;
21060;SDS011;10689;50.836;3.266;2023-03-23T04:52:22;7.90;;;1.63;;
21060;SDS011;10689;50.836;3.266;2023-03-23T04:54:50;2.20;;;1.38;;
21060;SDS011;10689;50.836;3.266;2023-03-23T04:57:15;1.23;;;1.05;;
21060;SDS011;10689;50.836;3.266;2023-03-23T04:59:42;4.05;;;1.50;;
21060;SDS011;10689;50.836;3.266;2023-03-23T05:02:09;3.20;;;1.27;;
21060;SDS011;10689;50.836;3.266;2023-03-23T05:04:36;2.97;;;1.10;;
21060;SDS011;10689;50.836;3.266;2023-03-23T05:07:02;2.00;;;0.87;;
21060;SDS011;10689;50.836;3.266;2023-03-23T05:09:28;1.90;;;0.70;;
21060;SDS011;10689;50.836;3.266;2023-03-23T05:11:54;3.17;;;1.10;;
21060;SDS011;10689;50.836;3.266;2023-03-23T05:14:20;2.70;;;0.70;;
21060;SDS011;10689;50.836;3.266;2023-03-23T05:16:46;1.63;;;0.83;;
21060;SDS011;10689;50.836;3.266;2023-03-23T05:19:14;1.17;;;0.40;;
21060;SDS011;10689;50.836;3.266;2023-03-23T05:21:40;2.23;;;0.60;;
21060;SDS011;10689;50.836;3.266;2023-03-23T05:24:05;2.40;;;0.83;;
21060;SDS011;10689;50.836;3.266;2023-03-23T05:26:32;0.40;;;0.40;;
21060;SDS011;10689;50.836;3.266;2023-03-23T05:28:58;1.60;;;0.60;;
21060;SDS011;10689;50.836;3.266;2023-03-23T05:31:24;1.53;;;0.50;;
21060;SDS011;10689;50.836;3.266;2023-03-23T05:33:51;2.93;;;0.80;;
21060;SDS011;10689;50.836;3.266;2023-03-23T05:36:17;0.60;;;0.60;;
21060;SDS011;10689;50.836;3.266;2023-03-23T05:38:43;1.00;;;0.60;;
21060;SDS011;10689;50.836;3.266;2023-03-23T05:41:12;1.63;;;0.80;;
21060;SDS011;10689;50.836;3.266;2023-03-23T05:43:39;0.53;;;0.50;;
21060;SDS011;10689;50.836;3.266;2023-03-23T05:46:05;0.93;;;0.60;;
21060;SDS011;10689;50.836;3.266;2023-03-23T05:48:32;1.73;;;0.60;;
21060;SDS011;10689;50.836;3.266;2023-03-23T05:50:58;1.00;;;0.90;;
21060;SDS011;10689;50.836;3.266;2023-03-23T05:53:24;2.73;;;0.90;;
21060;SDS011;10689;50.836;3.266;2023-03-23T05:55:50;2.90;;;0.97;;
21060;SDS011;10689;50.836;3.266;2023-03-23T05:58:17;3.70;;;1.13;;
21060;SDS011;10689;50.836;3.266;2023-03-23T06:00:43;1.37;;;0.80;;
21060;SDS011;10689;50.836;3.266;2023-03-23T06:03:10;1.03;;;0.90;;
21060;SDS011;10689;50.836;3.266;2023-03-23T06:05:41;2.97;;;1.40;;
21060;SDS011;10689;50.836;3.266;2023-03-23T06:08:11;2.30;;;1.67;;
21060;SDS011;10689;50.836;3.266;2023-03-23T06:10:39;3.63;;;1.80;;
21060;SDS011;10689;50.836;3.266;2023-03-23T06:13:05;3.53;;;1.70;;
21060;SDS011;10689;50.836;3.266;2023-03-23T06:18:27;2.50;;;1.83;;
21060;SDS011;10689;50.836;3.266;2023-03-23T06:24:13;5.13;;;2.03;;
21060;SDS011;10689;50.836;3.266;2023-03-23T06:26:39;3.17;;;2.43;;
21060;SDS011;10689;50.836;3.266;2023-03-23T06:29:13;5.87;;;3.07;;
21060;SDS011;10689;50.836;3.266;2023-03-23T06:31:46;8.47;;;1.70;;
21060;SDS011;10689;50.836;3.266;2023-03-23T06:34:25;3.57;;;1.23;;
21060;SDS011;10689;50.836;3.266;2023-03-23T06:36:54;2.57;;;0.90;;
21060;SDS011;10689;50.836;3.266;2023-03-23T06:39:20;1.20;;;0.90;;
21060;SDS011;10689;50.836;3.266;2023-03-23T06:41:52;3.33;;;1.03;;
21060;SDS011;10689;50.836;3.266;2023-03-23T06:44:28;1.83;;;1.17;;
21060;SDS011;10689;50.836;3.266;2023-03-23T06:47:27;4.87;;;1.50;;
21060;SDS011;10689;50.836;3.266;2023-03-23T06:49:59;2.60;;;0.77;;
21060;SDS011;10689;50.836;3.266;2023-03-23T06:52:34;2.87;;;1.00;;
21060;SDS011;10689;50.836;3.266;2023-03-23T06:55:18;6.50;;;2.10;;
21060;SDS011;10689;50.836;3.266;2023-03-23T06:57:47;2.37;;;1.43;;
21060;SDS011;10689;50.836;3.266;2023-03-23T07:00:36;4.88;;;1.00;;
21060;SDS011;10689;50.836;3.266;2023-03-23T07:03:09;2.87;;;0.80;;
21060;SDS011;10689;50.836;3.266;2023-03-23T07:05:58;3.33;;;1.03;;
21060;SDS011;10689;50.836;3.266;2023-03-23T07:08:24;1.37;;;0.97;;
21060;SDS011;10689;50.836;3.266;2023-03-23T07:10:52;3.13;;;1.20;;
21060;SDS011;10689;50.836;3.266;2023-03-23T07:13:19;7.87;;;1.60;;
21060;SDS011;10689;50.836;3.266;2023-03-23T07:16:00;3.83;;;1.13;;
21060;SDS011;10689;50.836;3.266;2023-03-23T07:18:29;4.03;;;1.30;;
21060;SDS011;10689;50.836;3.266;2023-03-23T07:20:54;2.50;;;1.33;;
21060;SDS011;10689;50.836;3.266;2023-03-23T07:23:20;3.33;;;1.10;;
21060;SDS011;10689;50.836;3.266;2023-03-23T07:25:46;4.93;;;1.00;;
21060;SDS011;10689;50.836;3.266;2023-03-23T07:28:13;3.13;;;1.10;;
21060;SDS011;10689;50.836;3.266;2023-03-23T07:30:45;2.97;;;1.50;;
21060;SDS011;10689;50.836;3.266;2023-03-23T07:33:11;3.90;;;1.17;;
21060;SDS011;10689;50.836;3.266;2023-03-23T07:35:37;1.60;;;0.93;;
21060;SDS011;10689;50.836;3.266;2023-03-23T07:38:04;9.87;;;1.00;;
21060;SDS011;10689;50.836;3.266;2023-03-23T07:40:32;2.93;;;0.97;;
21060;SDS011;10689;50.836;3.266;2023-03-23T07:43:01;5.33;;;1.33;;
21060;SDS011;10689;50.836;3.266;2023-03-23T07:45:29;2.43;;;0.90;;
21060;SDS011;10689;50.836;3.266;2023-03-23T07:47:55;3.97;;;1.00;;
21060;SDS011;10689;50.836;3.266;2023-03-23T07:50:21;3.70;;;1.00;;
21060;SDS011;10689;50.836;3.266;2023-03-23T07:52:49;7.20;;;1.03;;
21060;SDS011;10689;50.836;3.266;2023-03-23T07:55:15;5.37;;;0.90;;
21060;SDS011;10689;50.836;3.266;2023-03-23T07:57:44;4.47;;;0.93;;
21060;SDS011;10689;50.836;3.266;2023-03-23T08:00:13;3.27;;;0.70;;
21060;SDS011;10689;50.836;3.266;2023-03-23T08:02:45;2.23;;;0.80;;
21060;SDS011;10689;50.836;3.266;2023-03-23T08:05:12;2.13;;;1.30;;
21060;SDS011;10689;50.836;3.266;2023-03-23T08:07:38;1.97;;;1.27;;
21060;SDS011;10689;50.836;3.266;2023-03-23T08:10:07;3.37;;;0.80;;
21060;SDS011;10689;50.836;3.266;2023-03-23T08:12:41;1.97;;;0.70;;
21060;SDS011;10689;50.836;3.266;2023-03-23T08:15:08;8.23;;;0.87;;
21060;SDS011;10689;50.836;3.266;2023-03-23T08:17:39;1.80;;;1.07;;
21060;SDS011;10689;50.836;3.266;2023-03-23T08:20:09;2.23;;;0.90;;
21060;SDS011;10689;50.836;3.266;2023-03-23T08:22:42;1.77;;;1.00;;
21060;SDS011;10689;50.836;3.266;2023-03-23T08:25:13;3.73;;;1.20;;
21060;SDS011;10689;50.836;3.266;2023-03-23T08:27:44;5.73;;;0.93;;
21060;SDS011;10689;50.836;3.266;2023-03-23T08:30:17;4.50;;;1.30;;
21060;SDS011;10689;50.836;3.266;2023-03-23T08:32:47;1.63;;;1.03;;
21060;SDS011;10689;50.836;3.266;2023-03-23T08:35:18;2.97;;;0.97;;
21060;SDS011;10689;50.836;3.266;2023-03-23T08:37:47;3.57;;;1.30;;
21060;SDS011;10689;50.836;3.266;2023-03-23T08:40:18;4.40;;;0.90;;
21060;SDS011;10689;50.836;3.266;2023-03-23T08:42:46;1.70;;;1.30;;
21060;SDS011;10689;50.836;3.266;2023-03-23T08:45:13;1.25;;;0.90;;
21060;SDS011;10689;50.836;3.266;2023-03-23T08:47:53;4.17;;;1.37;;
21060;SDS011;10689;50.836;3.266;2023-03-23T08:50:28;3.20;;;1.40;;
21060;SDS011;10689;50.836;3.266;2023-03-23T08:52:55;8.67;;;1.13;;
21060;SDS011;10689;50.836;3.266;2023-03-23T08:55:25;6.20;;;1.63;;
21060;SDS011;10689;50.836;3.266;2023-03-23T08:57:54;3.03;;;1.37;;
21060;SDS011;10689;50.836;3.266;2023-03-23T09:00:30;2.10;;;1.27;;
21060;SDS011;10689;50.836;3.266;2023-03-23T09:02:59;1.02;;;1.02;;
21060;SDS011;10689;50.836;3.266;2023-03-23T09:05:40;3.40;;;1.20;;
21060;SDS011;10689;50.836;3.266;2023-03-23T09:08:10;2.17;;;1.47;;
21060;SDS011;10689;50.836;3.266;2023-03-23T09:13:14;4.00;;;1.35;;
21060;SDS011;10689;50.836;3.266;2023-03-23T09:16:00;5.43;;;1.63;;
21060;SDS011;10689;50.836;3.266;2023-03-23T09:18:26;2.90;;;1.50;;
21060;SDS011;10689;50.836;3.266;2023-03-23T09:21:00;1.33;;;1.23;;
21060;SDS011;10689;50.836;3.266;2023-03-23T09:23:29;3.42;;;1.38;;
21060;SDS011;10689;50.836;3.266;2023-03-23T09:25:56;3.25;;;1.45;;
21060;SDS011;10689;50.836;3.266;2023-03-23T09:28:24;1.85;;;1.20;;
21060;SDS011;10689;50.836;3.266;2023-03-23T09:30:51;2.67;;;1.33;;
21060;SDS011;10689;50.836;3.266;2023-03-23T09:33:26;4.13;;;1.30;;
21060;SDS011;10689;50.836;3.266;2023-03-23T09:35:54;4.57;;;1.50;;
21060;SDS011;10689;50.836;3.266;2023-03-23T09:38:46;6.28;;;1.50;;
21060;SDS011;10689;50.836;3.266;2023-03-23T09:45:01;3.85;;;1.40;;
21060;SDS011;10689;50.836;3.266;2023-03-23T09:53:53;6.00;;;1.35;;
21060;SDS011;10689;50.836;3.266;2023-03-23T09:56:26;2.97;;;1.25;;
21060;SDS011;10689;50.836;3.266;2023-03-23T10:02:21;4.70;;;1.50;;
21060;SDS011;10689;50.836;3.266;2023-03-23T10:04:58;6.03;;;2.33;;
21060;SDS011;10689;50.836;3.266;2023-03-23T10:08:31;3.00;;;2.58;;
21060;SDS011;10689;50.836;3.266;2023-03-23T10:18:00;5.20;;;1.35;;
21060;SDS011;10689;50.836;3.266;2023-03-23T10:26:48;2.00;;;1.17;;
21060;SDS011;10689;50.836;3.266;2023-03-23T10:29:47;2.67;;;1.40;;
21060;SDS011;10689;50.836;3.266;2023-03-23T10:41:23;5.72;;;1.30;;
21060;SDS011;10689;50.836;3.266;2023-03-23T10:44:07;3.05;;;1.88;;
21060;SDS011;10689;50.836;3.266;2023-03-23T10:46:45;5.70;;;1.60;;
21060;SDS011;10689;50.836;3.266;2023-03-23T10:49:26;5.05;;;1.77;;
21060;SDS011;10689;50.836;3.266;2023-03-23T10:52:10;4.38;;;1.95;;
21060;SDS011;10689;50.836;3.266;2023-03-23T10:55:11;2.60;;;1.38;;
21060;SDS011;10689;50.836;3.266;2023-03-23T10:57:43;4.85;;;1.98;;
21060;SDS011;10689;50.836;3.266;2023-03-23T11:00:25;5.88;;;1.52;;
21060;SDS011;10689;50.836;3.266;2023-03-23T11:08:25;3.58;;;1.63;;
21060;SDS011;10689;50.836;3.266;2023-03-23T11:11:20;5.75;;;1.65;;
21060;SDS011;10689;50.836;3.266;2023-03-23T11:16:51;2.47;;;1.55;;
21060;SDS011;10689;50.836;3.266;2023-03-23T11:19:43;6.72;;;1.58;;
21060;SDS011;10689;50.836;3.266;2023-03-23T11:22:31;4.57;;;1.40;;
21060;SDS011;10689;50.836;3.266;2023-03-23T11:25:02;4.18;;;1.30;;
21060;SDS011;10689;50.836;3.266;2023-03-23T11:27:56;3.10;;;1.27;;
21060;SDS011;10689;50.836;3.266;2023-03-23T11:30:26;4.90;;;1.40;;
21060;SDS011;10689;50.836;3.266;2023-03-23T11:36:34;4.78;;;1.75;;
21060;SDS011;10689;50.836;3.266;2023-03-23T11:39:33;3.20;;;1.58;;
21060;SDS011;10689;50.836;3.266;2023-03-23T11:54:09;7.50;;;2.08;;
21060;SDS011;10689;50.836;3.266;2023-03-23T11:56:44;5.00;;;1.83;;
21060;SDS011;10689;50.836;3.266;2023-03-23T11:59:18;6.95;;;2.00;;
21060;SDS011;10689;50.836;3.266;2023-03-23T12:07:36;4.43;;;1.90;;
21060;SDS011;10689;50.836;3.266;2023-03-23T12:10:20;3.50;;;1.63;;
21060;SDS011;10689;50.836;3.266;2023-03-23T12:18:36;5.47;;;1.50;;
21060;SDS011;10689;50.836;3.266;2023-03-23T12:27:49;3.75;;;1.80;;
21060;SDS011;10689;50.836;3.266;2023-03-23T12:49:52;5.03;;;2.15;;
21060;SDS011;10689;50.836;3.266;2023-03-23T12:53:13;3.13;;;1.23;;
21060;SDS011;10689;50.836;3.266;2023-03-23T12:58:55;6.40;;;2.63;;
21060;SDS011;10689;50.836;3.266;2023-03-23T13:01:42;6.40;;;1.80;;
21060;SDS011;10689;50.836;3.266;2023-03-23T13:04:13;4.03;;;2.10;;
21060;SDS011;10689;50.836;3.266;2023-03-23T13:06:44;1.77;;;1.38;;
21060;SDS011;10689;50.836;3.266;2023-03-23T13:09:14;4.07;;;1.30;;
21060;SDS011;10689;50.836;3.266;2023-03-23T13:11:56;3.60;;;2.28;;
21060;SDS011;10689;50.836;3.266;2023-03-23T13:14:32;5.55;;;2.15;;
21060;SDS011;10689;50.836;3.266;2023-03-23T13:20:15;3.00;;;1.52;;
21060;SDS011;10689;50.836;3.266;2023-03-23T13:23:11;8.70;;;2.35;;
21060;SDS011;10689;50.836;3.266;2023-03-23T13:25:51;5.43;;;1.85;;
21060;SDS011;10689;50.836;3.266;2023-03-23T13:28:31;6.05;;;2.85;;
21060;SDS011;10689;50.836;3.266;2023-03-23T13:31:36;6.10;;;1.92;;
21060;SDS011;10689;50.836;3.266;2023-03-23T13:34:38;8.30;;;1.85;;
21060;SDS011;10689;50.836;3.266;2023-03-23T13:36:57;3.53;;;2.13;;
21060;SDS011;10689;50.836;3.266;2023-03-23T13:42:51;5.57;;;1.70;;
21060;SDS011;10689;50.836;3.266;2023-03-23T13:50:55;3.55;;;1.60;;
21060;SDS011;10689;50.836;3.266;2023-03-23T13:53:47;8.35;;;1.70;;
21060;SDS011;10689;50.836;3.266;2023-03-23T14:05:07;6.80;;;2.08;;
21060;SDS011;10689;50.836;3.266;2023-03-23T14:16:24;4.20;;;1.60;;
21060;SDS011;10689;50.836;3.266;2023-03-23T14:21:34;6.15;;;1.85;;
21060;SDS011;10689;50.836;3.266;2023-03-23T14:24:33;6.72;;;1.48;;
21060;SDS011;10689;50.836;3.266;2023-03-23T14:27:17;3.67;;;1.50;;
21060;SDS011;10689;50.836;3.266;2023-03-23T14:29:45;5.53;;;1.52;;
21060;SDS011;10689;50.836;3.266;2023-03-23T14:35:36;9.32;;;2.17;;
21060;SDS011;10689;50.836;3.266;2023-03-23T14:38:21;1.85;;;1.50;;
21060;SDS011;10689;50.836;3.266;2023-03-23T14:43:59;6.55;;;1.65;;
21060;SDS011;10689;50.836;3.266;2023-03-23T14:46:36;5.07;;;1.38;;
21060;SDS011;10689;50.836;3.266;2023-03-23T14:49:04;9.70;;;2.20;;
21060;SDS011;10689;50.836;3.266;2023-03-23T14:57:51;2.60;;;1.20;;
21060;SDS011;10689;50.836;3.266;2023-03-23T15:00:25;4.55;;;1.90;;
21060;SDS011;10689;50.836;3.266;2023-03-23T15:03:06;5.68;;;1.65;;
21060;SDS011;10689;50.836;3.266;2023-03-23T15:05:45;2.95;;;1.50;;
21060;SDS011;10689;50.836;3.266;2023-03-23T15:11:37;4.60;;;1.40;;
21060;SDS011;10689;50.836;3.266;2023-03-23T15:14:44;4.22;;;1.60;;
21060;SDS011;10689;50.836;3.266;2023-03-23T15:18:01;3.83;;;1.65;;
21060;SDS011;10689;50.836;3.266;2023-03-23T15:21:11;3.20;;;1.70;;
21060;SDS011;10689;50.836;3.266;2023-03-23T15:23:51;6.22;;;1.70;;
21060;SDS011;10689;50.836;3.266;2023-03-23T15:26:25;3.50;;;1.33;;
21060;SDS011;10689;50.836;3.266;2023-03-23T15:31:40;7.68;;;1.67;;
21060;SDS011;10689;50.836;3.266;2023-03-23T15:37:21;8.88;;;1.33;;
21060;SDS011;10689;50.836;3.266;2023-03-23T15:39:58;3.88;;;1.70;;
21060;SDS011;10689;50.836;3.266;2023-03-23T15:45:52;3.88;;;1.40;;
21060;SDS011;10689;50.836;3.266;2023-03-23T15:48:23;2.78;;;1.15;;
21060;SDS011;10689;50.836;3.266;2023-03-23T15:51:01;6.28;;;1.45;;
21060;SDS011;10689;50.836;3.266;2023-03-23T15:53:35;4.32;;;1.73;;
21060;SDS011;10689;50.836;3.266;2023-03-23T15:56:06;3.95;;;1.27;;
21060;SDS011;10689;50.836;3.266;2023-03-23T15:58:37;4.28;;;1.17;;
21060;SDS011;10689;50.836;3.266;2023-03-23T16:01:07;3.78;;;1.50;;
21060;SDS011;10689;50.836;3.266;2023-03-23T16:03:40;5.72;;;1.15;;
21060;SDS011;10689;50.836;3.266;2023-03-23T16:06:39;5.30;;;1.25;;
21060;SDS011;10689;50.836;3.266;2023-03-23T16:09:15;4.05;;;1.25;;
21060;SDS011;10689;50.836;3.266;2023-03-23T16:11:58;4.75;;;1.38;;
21060;SDS011;10689;50.836;3.266;2023-03-23T16:14:47;1.85;;;1.15;;
21060;SDS011;10689;50.836;3.266;2023-03-23T16:17:25;3.17;;;1.35;;
21060;SDS011;10689;50.836;3.266;2023-03-23T16:19:57;3.38;;;1.73;;
21060;SDS011;10689;50.836;3.266;2023-03-23T16:22:26;2.22;;;1.05;;
21060;SDS011;10689;50.836;3.266;2023-03-23T16:24:52;3.50;;;1.45;;
21060;SDS011;10689;50.836;3.266;2023-03-23T16:27:18;3.03;;;1.45;;
21060;SDS011;10689;50.836;3.266;2023-03-23T16:29:48;2.60;;;1.40;;
21060;SDS011;10689;50.836;3.266;2023-03-23T16:32:32;3.85;;;1.05;;
21060;SDS011;10689;50.836;3.266;2023-03-23T16:34:58;5.20;;;1.30;;
21060;SDS011;10689;50.836;3.266;2023-03-23T16:37:25;1.73;;;1.17;;
21060;SDS011;10689;50.836;3.266;2023-03-23T16:39:57;5.90;;;1.55;;
21060;SDS011;10689;50.836;3.266;2023-03-23T16:42:25;5.22;;;1.48;;
21060;SDS011;10689;50.836;3.266;2023-03-23T16:44:52;2.05;;;1.17;;
21060;SDS011;10689;50.836;3.266;2023-03-23T16:47:22;3.53;;;1.30;;
21060;SDS011;10689;50.836;3.266;2023-03-23T16:49:58;3.63;;;1.20;;
21060;SDS011;10689;50.836;3.266;2023-03-23T16:52:24;3.13;;;2.25;;
21060;SDS011;10689;50.836;3.266;2023-03-23T16:54:50;4.10;;;1.58;;
21060;SDS011;10689;50.836;3.266;2023-03-23T16:57:16;6.47;;;1.60;;
21060;SDS011;10689;50.836;3.266;2023-03-23T16:59:50;3.85;;;1.77;;
21060;SDS011;10689;50.836;3.266;2023-03-23T17:02:24;2.50;;;1.52;;
21060;SDS011;10689;50.836;3.266;2023-03-23T17:05:05;5.13;;;1.60;;
21060;SDS011;10689;50.836;3.266;2023-03-23T17:08:17;3.92;;;1.45;;
21060;SDS011;10689;50.836;3.266;2023-03-23T17:10:55;5.47;;;1.70;;
21060;SDS011;10689;50.836;3.266;2023-03-23T17:13:21;5.03;;;2.35;;
21060;SDS011;10689;50.836;3.266;2023-03-23T17:15:50;3.60;;;1.85;;
21060;SDS011;10689;50.836;3.266;2023-03-23T17:18:20;3.95;;;1.45;;
21060;SDS011;10689;50.836;3.266;2023-03-23T17:20:58;7.70;;;2.95;;
21060;SDS011;10689;50.836;3.266;2023-03-23T17:23:27;5.55;;;1.90;;
21060;SDS011;10689;50.836;3.266;2023-03-23T17:26:11;3.67;;;1.58;;
21060;SDS011;10689;50.836;3.266;2023-03-23T17:28:40;6.38;;;2.13;;
21060;SDS011;10689;50.836;3.266;2023-03-23T17:31:23;6.97;;;1.70;;
21060;SDS011;10689;50.836;3.266;2023-03-23T17:33:51;7.28;;;2.85;;
21060;SDS011;10689;50.836;3.266;2023-03-23T17:36:17;6.28;;;1.60;;
21060;SDS011;10689;50.836;3.266;2023-03-23T17:38:44;5.53;;;1.80;;
21060;SDS011;10689;50.836;3.266;2023-03-23T17:41:10;3.53;;;1.40;;
21060;SDS011;10689;50.836;3.266;2023-03-23T17:43:36;2.50;;;1.42;;
21060;SDS011;10689;50.836;3.266;2023-03-23T17:46:04;3.38;;;1.65;;
21060;SDS011;10689;50.836;3.266;2023-03-23T17:48:31;3.25;;;1.77;;
21060;SDS011;10689;50.836;3.266;2023-03-23T17:50:58;5.28;;;2.15;;
21060;SDS011;10689;50.836;3.266;2023-03-23T17:53:26;4.50;;;1.55;;
21060;SDS011;10689;50.836;3.266;2023-03-23T17:55:54;12.75;;;1.70;;
21060;SDS011;10689;50.836;3.266;2023-03-23T17:58:21;5.28;;;1.65;;
21060;SDS011;10689;50.836;3.266;2023-03-23T18:00:49;7.45;;;2.42;;
21060;SDS011;10689;50.836;3.266;2023-03-23T18:03:18;6.35;;;2.50;;
21060;SDS011;10689;50.836;3.266;2023-03-23T18:05:44;3.15;;;1.73;;
21060;SDS011;10689;50.836;3.266;2023-03-23T18:08:21;6.63;;;2.35;;
21060;SDS011;10689;50.836;3.266;2023-03-23T18:10:47;4.15;;;1.77;;
21060;SDS011;10689;50.836;3.266;2023-03-23T18:13:13;6.53;;;1.98;;
21060;SDS011;10689;50.836;3.266;2023-03-23T18:15:41;7.10;;;2.00;;
21060;SDS011;10689;50.836;3.266;2023-03-23T18:18:08;4.50;;;1.70;;
21060;SDS011;10689;50.836;3.266;2023-03-23T18:20:35;4.80;;;2.50;;
21060;SDS011;10689;50.836;3.266;2023-03-23T18:23:00;4.82;;;2.03;;
21060;SDS011;10689;50.836;3.266;2023-03-23T18:25:28;5.13;;;1.90;;